China Lake Nwc, California
Current Conditions -  °F | °C
As of 2:56 PM on Saturday 25 Oct 2014 (Local Time) from KNID Reporting Station
Clear Clear  
Wind Chill: 85°   Ceiling: Unl
Heat Index: 85°   Visibility: 10mi
Dew Point: 32°   Wind: 18mph
Humidity: 15%   Direction: 190°S
Pressure: 29.97"   Gusts: 29mph
Location:  35.7401°N, 117.453°W
Report Text: KNID 252156Z AUTO 19016G25KT 10SM CLR 29/00 A2997 RMK AO2 PK WND 21027/2136 SLP129 T02940000 $
Loading
Personal Weather Stations






























Interactive Weather Map
Tropical Storm Tracking
New forecast layout! Learn more

10-Day Weather Forecast

Advertisements
Track Severe Weather on mobile